Highland Village, Texas
Current Conditions -  °F | °C
As of 10:04 PM on Thursday 18 Dec 2014 (Local Time) from KDFW Reporting Station
Overcast Overcast  
Wind Chill: 47°   Ceiling: 1300
Heat Index: 47°   Visibility: 10mi
Dew Point: 43°   Wind: 3mph
Humidity: 86%   Direction: 30°NNE
Pressure: 30.18"   Gusts: NA
Location:  33.0461°N, 96.9938°W
Report Text: KDFW 190404Z 03003KT 10SM OVC013 08/06 A3018 RMK AO2 PRESRR T00830061
Loading
Personal Weather Stations






























Interactive Weather Map New forecast layout! Learn more

10-Day Weather Forecast

Advertisements
Track Severe Weather on mobile